sensor_id;sensor_type;location;lat;lon;timestamp;pressure;altitude;pressure_sealevel;temperature;humidity
64243;BME280;50573;51.512;5.386;2022-12-18T00:08:19;102701.97;;;-5.18;100.00
64243;BME280;50573;51.512;5.386;2022-12-18T00:18:22;102703.88;;;-5.24;100.00
64243;BME280;50573;51.512;5.386;2022-12-18T00:28:26;102674.25;;;-5.36;100.00
64243;BME280;50573;51.512;5.386;2022-12-18T00:38:29;102663.84;;;-5.32;100.00
64243;BME280;50573;51.512;5.386;2022-12-18T00:48:33;102657.34;;;-5.45;100.00
64243;BME280;50573;51.512;5.386;2022-12-18T00:58:36;102652.84;;;-5.49;100.00
64243;BME280;50573;51.512;5.386;2022-12-18T01:08:40;102658.16;;;-5.49;100.00
64243;BME280;50573;51.512;5.386;2022-12-18T01:18:46;102675.72;;;-5.53;100.00
64243;BME280;50573;51.512;5.386;2022-12-18T01:28:50;102674.59;;;-5.47;100.00
64243;BME280;50573;51.512;5.386;2022-12-18T01:38:53;102674.84;;;-5.44;100.00
64243;BME280;50573;51.512;5.386;2022-12-18T01:48:59;102671.63;;;-5.41;100.00
64243;BME280;50573;51.512;5.386;2022-12-18T01:59:03;102676.16;;;-5.41;100.00
64243;BME280;50573;51.512;5.386;2022-12-18T02:09:10;102651.56;;;-5.52;100.00
64243;BME280;50573;51.512;5.386;2022-12-18T02:19:19;102665.66;;;-5.56;100.00
64243;BME280;50573;51.512;5.386;2022-12-18T02:29:26;102655.31;;;-5.58;100.00
64243;BME280;50573;51.512;5.386;2022-12-18T02:39:32;102645.06;;;-5.70;100.00
64243;BME280;50573;51.512;5.386;2022-12-18T02:49:43;102640.28;;;-5.68;100.00
64243;BME280;50573;51.512;5.386;2022-12-18T02:59:50;102633.38;;;-5.69;100.00
64243;BME280;50573;51.512;5.386;2022-12-18T03:09:57;102613.75;;;-5.68;100.00
64243;BME280;50573;51.512;5.386;2022-12-18T03:20:03;102605.03;;;-5.73;100.00
64243;BME280;50573;51.512;5.386;2022-12-18T03:30:09;102613.53;;;-5.76;100.00
64243;BME280;50573;51.512;5.386;2022-12-18T03:40:14;102615.97;;;-5.80;100.00
64243;BME280;50573;51.512;5.386;2022-12-18T03:50:20;102606.22;;;-5.84;100.00
64243;BME280;50573;51.512;5.386;2022-12-18T04:00:25;102594.84;;;-5.90;100.00
64243;BME280;50573;51.512;5.386;2022-12-18T04:10:38;102562.25;;;-5.90;100.00
64243;BME280;50573;51.512;5.386;2022-12-18T04:20:41;102545.00;;;-5.93;99.86
64243;BME280;50573;51.512;5.386;2022-12-18T04:30:46;102558.50;;;-5.89;99.16
64243;BME280;50573;51.512;5.386;2022-12-18T04:40:50;102567.88;;;-5.97;99.03
64243;BME280;50573;51.512;5.386;2022-12-18T04:51:00;102603.44;;;-6.03;99.00
64243;BME280;50573;51.512;5.386;2022-12-18T05:01:03;102591.88;;;-6.17;99.13
64243;BME280;50573;51.512;5.386;2022-12-18T05:11:07;102603.56;;;-6.18;99.62
64243;BME280;50573;51.512;5.386;2022-12-18T05:21:11;102591.84;;;-6.12;99.44
64243;BME280;50573;51.512;5.386;2022-12-18T05:31:15;102592.81;;;-6.03;98.89
64243;BME280;50573;51.512;5.386;2022-12-18T05:41:18;102586.47;;;-6.02;98.82
64243;BME280;50573;51.512;5.386;2022-12-18T05:51:22;102576.09;;;-5.98;98.79
64243;BME280;50573;51.512;5.386;2022-12-18T06:01:25;102572.41;;;-6.02;98.28
64243;BME280;50573;51.512;5.386;2022-12-18T06:11:30;102569.81;;;-6.12;98.67
64243;BME280;50573;51.512;5.386;2022-12-18T06:21:33;102569.59;;;-6.21;99.08
64243;BME280;50573;51.512;5.386;2022-12-18T06:31:38;102574.19;;;-6.26;99.04
64243;BME280;50573;51.512;5.386;2022-12-18T06:41:40;102575.53;;;-6.34;99.41
64243;BME280;50573;51.512;5.386;2022-12-18T06:51:45;102556.72;;;-6.32;99.84
64243;BME280;50573;51.512;5.386;2022-12-18T07:01:49;102557.50;;;-6.32;99.35
64243;BME280;50573;51.512;5.386;2022-12-18T07:11:53;102540.59;;;-6.36;99.55
64243;BME280;50573;51.512;5.386;2022-12-18T07:21:56;102519.34;;;-6.31;99.65
64243;BME280;50573;51.512;5.386;2022-12-18T07:32:00;102486.88;;;-6.18;99.14
64243;BME280;50573;51.512;5.386;2022-12-18T07:42:03;102477.22;;;-6.04;98.91
64243;BME280;50573;51.512;5.386;2022-12-18T07:52:40;102446.28;;;-5.66;97.50
64243;BME280;50573;51.512;5.386;2022-12-18T08:02:42;102436.31;;;-5.55;96.77
64243;BME280;50573;51.512;5.386;2022-12-18T08:12:49;102454.78;;;-5.45;96.64
64243;BME280;50573;51.512;5.386;2022-12-18T08:22:52;102458.31;;;-5.31;96.32
64243;BME280;50573;51.512;5.386;2022-12-18T08:32:56;102455.69;;;-5.13;95.75
64243;BME280;50573;51.512;5.386;2022-12-18T08:42:59;102448.81;;;-4.95;95.15
64243;BME280;50573;51.512;5.386;2022-12-18T08:53:21;102442.69;;;-4.77;94.27
64243;BME280;50573;51.512;5.386;2022-12-18T09:03:25;102431.47;;;-4.56;93.68
64243;BME280;50573;51.512;5.386;2022-12-18T09:13:29;102454.16;;;-4.31;92.97
64243;BME280;50573;51.512;5.386;2022-12-18T09:23:32;102465.06;;;-4.14;92.60
64243;BME280;50573;51.512;5.386;2022-12-18T09:33:37;102439.19;;;-3.95;91.25
64243;BME280;50573;51.512;5.386;2022-12-18T09:43:43;102439.56;;;-3.74;90.67
64243;BME280;50573;51.512;5.386;2022-12-18T09:53:53;102409.91;;;-3.54;89.92
64243;BME280;50573;51.512;5.386;2022-12-18T10:03:59;102427.53;;;-3.31;88.85
64243;BME280;50573;51.512;5.386;2022-12-18T10:14:08;102419.78;;;-3.06;87.99
64243;BME280;50573;51.512;5.386;2022-12-18T10:24:18;102414.03;;;-2.77;87.91
64243;BME280;50573;51.512;5.386;2022-12-18T10:34:25;102379.97;;;-2.58;86.31
64243;BME280;50573;51.512;5.386;2022-12-18T10:44:29;102366.28;;;-2.34;86.05
64243;BME280;50573;51.512;5.386;2022-12-18T10:54:34;102355.41;;;-2.16;86.17
64243;BME280;50573;51.512;5.386;2022-12-18T11:04:50;102338.19;;;-2.01;84.81
64243;BME280;50573;51.512;5.386;2022-12-18T11:14:55;102345.78;;;-1.78;85.26
64243;BME280;50573;51.512;5.386;2022-12-18T11:25:01;102326.00;;;-1.60;84.42
64243;BME280;50573;51.512;5.386;2022-12-18T11:35:34;102308.41;;;-1.52;84.16
64243;BME280;50573;51.512;5.386;2022-12-18T11:45:42;102308.72;;;-1.28;84.54
64243;BME280;50573;51.512;5.386;2022-12-18T11:55:59;102304.00;;;-1.14;82.62
64243;BME280;50573;51.512;5.386;2022-12-18T12:06:11;102284.34;;;-1.01;83.15
64243;BME280;50573;51.512;5.386;2022-12-18T12:16:25;102256.63;;;-0.96;82.83
64243;BME280;50573;51.512;5.386;2022-12-18T12:26:36;102255.03;;;-0.89;82.58
64243;BME280;50573;51.512;5.386;2022-12-18T12:36:52;102237.41;;;-0.81;82.05
64243;BME280;50573;51.512;5.386;2022-12-18T12:47:01;102219.75;;;-0.74;82.28
64243;BME280;50573;51.512;5.386;2022-12-18T12:57:13;102206.50;;;-0.62;81.83
64243;BME280;50573;51.512;5.386;2022-12-18T13:07:26;102190.22;;;-0.57;81.26
64243;BME280;50573;51.512;5.386;2022-12-18T13:17:33;102181.41;;;-0.49;81.57
64243;BME280;50573;51.512;5.386;2022-12-18T13:27:46;102185.31;;;-0.46;80.67
64243;BME280;50573;51.512;5.386;2022-12-18T13:37:57;102186.09;;;-0.46;80.52
64243;BME280;50573;51.512;5.386;2022-12-18T13:48:01;102166.72;;;-0.43;80.65
64243;BME280;50573;51.512;5.386;2022-12-18T13:58:06;102156.72;;;-0.34;80.47
64243;BME280;50573;51.512;5.386;2022-12-18T14:08:12;102143.94;;;-0.28;80.17
64243;BME280;50573;51.512;5.386;2022-12-18T14:18:22;102152.13;;;-0.25;79.97
64243;BME280;50573;51.512;5.386;2022-12-18T14:28:26;102137.13;;;-0.26;80.02
64243;BME280;50573;51.512;5.386;2022-12-18T14:38:33;102151.47;;;-0.22;80.02
64243;BME280;50573;51.512;5.386;2022-12-18T14:48:38;102138.72;;;-0.25;79.49
64243;BME280;50573;51.512;5.386;2022-12-18T14:58:48;102145.31;;;-0.22;80.53
64243;BME280;50573;51.512;5.386;2022-12-18T15:08:51;102126.44;;;-0.26;80.22
64243;BME280;50573;51.512;5.386;2022-12-18T15:18:56;102113.69;;;-0.29;81.02
64243;BME280;50573;51.512;5.386;2022-12-18T15:28:59;102114.81;;;-0.30;81.25
64243;BME280;50573;51.512;5.386;2022-12-18T15:39:06;102097.84;;;-0.34;81.79
64243;BME280;50573;51.512;5.386;2022-12-18T15:49:09;102105.66;;;-0.29;81.66
64243;BME280;50573;51.512;5.386;2022-12-18T15:59:15;102071.81;;;-0.25;81.46
64243;BME280;50573;51.512;5.386;2022-12-18T16:09:18;102072.13;;;-0.26;81.34
64243;BME280;50573;51.512;5.386;2022-12-18T16:19:28;102054.63;;;-0.24;81.38
64243;BME280;50573;51.512;5.386;2022-12-18T16:29:31;102029.41;;;-0.23;81.44
64243;BME280;50573;51.512;5.386;2022-12-18T16:39:37;102026.97;;;-0.16;81.26
64243;BME280;50573;51.512;5.386;2022-12-18T16:49:40;102010.47;;;-0.18;81.33
64243;BME280;50573;51.512;5.386;2022-12-18T16:59:45;102012.59;;;-0.11;81.05
64243;BME280;50573;51.512;5.386;2022-12-18T17:09:49;101997.78;;;-0.09;81.14
64243;BME280;50573;51.512;5.386;2022-12-18T17:19:53;102011.72;;;-0.03;80.98
64243;BME280;50573;51.512;5.386;2022-12-18T17:29:56;102024.34;;;-0.04;81.13
64243;BME280;50573;51.512;5.386;2022-12-18T17:40:01;102020.69;;;0.01;81.20
64243;BME280;50573;51.512;5.386;2022-12-18T17:50:04;102026.59;;;0.07;81.26
64243;BME280;50573;51.512;5.386;2022-12-18T18:00:10;102017.72;;;0.15;80.72
64243;BME280;50573;51.512;5.386;2022-12-18T18:10:14;102005.66;;;0.21;81.08
64243;BME280;50573;51.512;5.386;2022-12-18T18:20:18;102002.78;;;0.26;80.62
64243;BME280;50573;51.512;5.386;2022-12-18T18:30:23;101997.63;;;0.33;79.99
64243;BME280;50573;51.512;5.386;2022-12-18T18:40:28;102002.88;;;0.41;79.93
64243;BME280;50573;51.512;5.386;2022-12-18T18:50:31;102002.00;;;0.49;79.41
64243;BME280;50573;51.512;5.386;2022-12-18T19:00:35;101993.63;;;0.51;79.36
64243;BME280;50573;51.512;5.386;2022-12-18T19:10:39;101995.06;;;0.60;79.11
64243;BME280;50573;51.512;5.386;2022-12-18T19:20:44;101999.22;;;0.58;79.74
64243;BME280;50573;51.512;5.386;2022-12-18T19:30:59;102004.78;;;0.53;84.75
64243;BME280;50573;51.512;5.386;2022-12-18T19:41:04;102006.34;;;0.42;88.90
64243;BME280;50573;51.512;5.386;2022-12-18T19:51:10;102003.22;;;0.40;91.70
64243;BME280;50573;51.512;5.386;2022-12-18T20:01:16;102000.53;;;0.40;93.46
64243;BME280;50573;51.512;5.386;2022-12-18T20:11:20;102005.91;;;0.40;94.24
64243;BME280;50573;51.512;5.386;2022-12-18T20:21:25;101995.84;;;0.37;96.06
64243;BME280;50573;51.512;5.386;2022-12-18T20:31:28;101998.53;;;0.37;97.28
64243;BME280;50573;51.512;5.386;2022-12-18T20:41:32;101994.72;;;0.38;98.21
64243;BME280;50573;51.512;5.386;2022-12-18T20:51:39;101970.28;;;0.39;98.87
64243;BME280;50573;51.512;5.386;2022-12-18T21:01:44;101959.66;;;0.43;99.42
64243;BME280;50573;51.512;5.386;2022-12-18T21:11:50;101940.69;;;0.48;100.00
64243;BME280;50573;51.512;5.386;2022-12-18T21:22:16;101932.31;;;0.49;100.00
64243;BME280;50573;51.512;5.386;2022-12-18T21:32:19;101928.63;;;0.54;100.00
64243;BME280;50573;51.512;5.386;2022-12-18T21:42:26;101914.00;;;0.51;100.00
64243;BME280;50573;51.512;5.386;2022-12-18T21:52:47;101906.41;;;0.53;100.00
64243;BME280;50573;51.512;5.386;2022-12-18T22:02:51;101885.50;;;0.59;100.00
64243;BME280;50573;51.512;5.386;2022-12-18T22:13:14;101863.94;;;0.67;100.00
64243;BME280;50573;51.512;5.386;2022-12-18T22:23:19;101849.94;;;0.74;100.00
64243;BME280;50573;51.512;5.386;2022-12-18T22:33:22;101814.16;;;0.82;100.00
64243;BME280;50573;51.512;5.386;2022-12-18T22:43:26;101800.41;;;0.83;100.00
64243;BME280;50573;51.512;5.386;2022-12-18T22:53:29;101790.00;;;0.94;100.00
64243;BME280;50573;51.512;5.386;2022-12-18T23:03:35;101778.75;;;1.04;100.00
64243;BME280;50573;51.512;5.386;2022-12-18T23:13:38;101778.78;;;1.19;100.00
64243;BME280;50573;51.512;5.386;2022-12-18T23:23:43;101747.72;;;1.34;100.00
64243;BME280;50573;51.512;5.386;2022-12-18T23:33:46;101744.06;;;1.42;100.00
64243;BME280;50573;51.512;5.386;2022-12-18T23:43:51;101727.28;;;1.45;100.00
64243;BME280;50573;51.512;5.386;2022-12-18T23:53:56;101702.84;;;1.50;100.00
